North Walsham, United Kingdom
Current Conditions -  °F | °C
As of 1:20 AM on Monday 22 Dec 2014 (Local Time) from EGSH Reporting Station
Overcast Overcast  
Wind Chill: 12°   Ceiling: 1400
Heat Index: 12°   Visibility: 6mi
Dew Point: 10°   Wind: 26mph
Humidity: 88%   Direction: 230°SW
Pressure: 29.94"   Gusts: 40mph
Location:  52.82°N, 1.39°E
Report Text: EGSH 220120Z AUTO 23023G35KT 9999 OVC014/// 12/10 Q1014
Loading
Personal Weather Stations






























Interactive Weather Map New forecast layout! Learn more

10-Day Weather Forecast

Advertisements
Track Severe Weather on mobile